Terminal Aerodrome Forecast
Issued by NWS

Home | Current Version | Previous Version | Text Only | Print | Product List | Glossary On
Versions: 1 2 3 4 5 6 7 8 9 10 11 12 13 14 15 16 17 18
000
FTUS45 KGJT 172332
TAFEGE
TAF
KEGE 172332Z 1800/1824 24010G20KT P6SM FEW070 SCT200
     FM180200 09003KT P6SM SCT200
     FM181700 24005KT P6SM FEW080 SCT120
     FM181900 23015G25KT P6SM SCT080
      AMD LTD TO CLD VIS AND WIND 1801/1814=

USA.gov is the U.S. government's official web portal to all federal, state and local government web resources and services.